createdAt,value
2023-08-06T00:00:27.065Z,100552.28
2023-08-06T00:02:53.813Z,100552.41
2023-08-06T00:05:22.056Z,100557.06
2023-08-06T00:07:49.236Z,100551.84
2023-08-06T00:10:15.612Z,100544.75
2023-08-06T00:12:42.177Z,100550.00
2023-08-06T00:15:09.293Z,100541.06
2023-08-06T00:17:38.763Z,100535.97
2023-08-06T00:20:07.252Z,100530.50
2023-08-06T00:22:34.087Z,100533.41
2023-08-06T00:25:00.595Z,100528.59
2023-08-06T00:27:27.280Z,100533.72
2023-08-06T00:29:53.809Z,100532.16
2023-08-06T00:32:20.381Z,100535.28
2023-08-06T00:34:46.759Z,100535.47
2023-08-06T00:37:13.107Z,100538.94
2023-08-06T00:39:39.460Z,100546.91
2023-08-06T00:42:05.895Z,100547.75
2023-08-06T00:44:32.280Z,100552.66
2023-08-06T00:46:59.403Z,100543.78
2023-08-06T00:49:25.818Z,100539.56
2023-08-06T00:51:52.805Z,100543.28
2023-08-06T00:54:19.352Z,100547.66
2023-08-06T00:56:46.370Z,100545.44
2023-08-06T00:59:13.128Z,100534.31
2023-08-06T01:01:39.529Z,100538.13
2023-08-06T01:04:05.916Z,100532.97
2023-08-06T01:06:45.608Z,100533.22
2023-08-06T01:09:46.366Z,100534.84
2023-08-06T01:12:57.252Z,100522.22
2023-08-06T01:15:32.529Z,100510.47
2023-08-06T01:17:59.511Z,100511.22
2023-08-06T01:20:32.416Z,100503.78
2023-08-06T01:22:58.818Z,100498.09
2023-08-06T01:25:32.164Z,100502.19
2023-08-06T01:28:04.284Z,100491.97
2023-08-06T01:30:36.918Z,100498.25
2023-08-06T01:33:06.944Z,100492.66
2023-08-06T01:35:33.920Z,100491.63
2023-08-06T01:38:03.672Z,100500.06
2023-08-06T01:40:30.736Z,100490.88
2023-08-06T01:42:57.135Z,100489.56
2023-08-06T01:45:23.520Z,100479.19
2023-08-06T01:47:49.918Z,100476.03
2023-08-06T01:50:16.326Z,100470.50
2023-08-06T01:52:42.694Z,100467.84
2023-08-06T01:55:09.143Z,100454.34
2023-08-06T01:57:35.492Z,100459.00
2023-08-06T02:00:01.893Z,100463.63
2023-08-06T02:02:28.351Z,100455.88
2023-08-06T02:04:54.732Z,100463.78
2023-08-06T02:07:21.093Z,100452.59
2023-08-06T02:09:47.444Z,100451.78
2023-08-06T02:12:13.806Z,100453.50
2023-08-06T02:14:40.161Z,100453.41
2023-08-06T02:17:06.687Z,100454.59
2023-08-06T02:19:33.023Z,100446.94
2023-08-06T02:21:59.407Z,100442.78
2023-08-06T02:24:25.772Z,100451.78
2023-08-06T02:26:52.546Z,100453.94
2023-08-06T02:29:19.165Z,100451.09
2023-08-06T02:31:45.634Z,100432.25
2023-08-06T02:34:12.095Z,100431.53
2023-08-06T02:36:38.472Z,100425.84
2023-08-06T02:39:04.824Z,100431.53
2023-08-06T02:41:31.160Z,100421.22
2023-08-06T02:43:57.516Z,100429.25
2023-08-06T02:46:23.954Z,100412.66
2023-08-06T02:48:50.301Z,100415.31
2023-08-06T02:51:16.648Z,100418.91
2023-08-06T02:53:43.026Z,100418.31
2023-08-06T02:56:09.379Z,100420.72
2023-08-06T02:58:35.734Z,100410.84
2023-08-06T03:01:06.732Z,100410.03
2023-08-06T03:03:33.473Z,100395.69
2023-08-06T03:06:00.031Z,100406.72
2023-08-06T03:08:26.974Z,100410.09
2023-08-06T03:10:53.383Z,100404.69
2023-08-06T03:13:19.948Z,100403.63
2023-08-06T03:15:55.008Z,100408.28
2023-08-06T03:18:22.232Z,100416.94
2023-08-06T03:20:48.877Z,100415.25
2023-08-06T03:23:15.318Z,100411.53
2023-08-06T03:25:41.683Z,100401.59
2023-08-06T03:28:08.037Z,100418.28
2023-08-06T03:30:34.474Z,100403.66
2023-08-06T03:33:00.860Z,100400.69
2023-08-06T03:35:27.280Z,100396.41
2023-08-06T03:37:53.666Z,100392.13
2023-08-06T03:40:20.123Z,100389.13
2023-08-06T03:42:46.471Z,100392.53
2023-08-06T03:45:12.822Z,100391.50
2023-08-06T03:47:39.210Z,100382.25
2023-08-06T03:50:05.910Z,100381.41
2023-08-06T03:52:32.250Z,100370.47
2023-08-06T03:54:58.667Z,100374.16
2023-08-06T03:57:25.018Z,100372.63
2023-08-06T03:59:55.257Z,100367.34
2023-08-06T04:02:22.054Z,100368.38
2023-08-06T04:04:48.544Z,100357.56
2023-08-06T04:07:14.890Z,100362.91
2023-08-06T04:09:59.344Z,100364.16
2023-08-06T04:12:26.089Z,100352.91
2023-08-06T04:14:55.946Z,100355.03
2023-08-06T04:17:22.956Z,100349.63
2023-08-06T04:19:51.534Z,100353.06
2023-08-06T04:22:18.213Z,100360.09
2023-08-06T04:24:44.811Z,100345.63
2023-08-06T04:27:12.088Z,100343.09
2023-08-06T04:29:38.852Z,100350.97
2023-08-06T04:32:08.887Z,100349.03
2023-08-06T04:34:36.241Z,100344.00
2023-08-06T04:37:03.765Z,100349.19
2023-08-06T04:39:30.414Z,100357.63
2023-08-06T04:41:58.562Z,100358.81
2023-08-06T04:44:24.934Z,100359.50
2023-08-06T04:46:51.623Z,100359.47
2023-08-06T04:49:18.919Z,100357.09
2023-08-06T04:51:45.317Z,100362.88
2023-08-06T04:54:11.652Z,100370.56
2023-08-06T04:56:38.103Z,100363.63
2023-08-06T04:59:04.481Z,100369.38
2023-08-06T05:01:31.008Z,100364.16
2023-08-06T05:03:57.455Z,100361.94
2023-08-06T05:06:23.850Z,100362.25
2023-08-06T05:08:50.199Z,100352.22
2023-08-06T05:11:16.671Z,100359.25
2023-08-06T05:13:43.049Z,100358.88
2023-08-06T05:16:09.560Z,100356.06
2023-08-06T05:18:35.959Z,100362.59
2023-08-06T05:21:02.381Z,100361.84
2023-08-06T05:23:28.724Z,100370.09
2023-08-06T05:25:55.065Z,100363.63
2023-08-06T05:28:21.478Z,100378.91
2023-08-06T05:30:47.871Z,100368.81
2023-08-06T05:33:14.302Z,100370.56
2023-08-06T05:35:42.114Z,100367.59
2023-08-06T05:38:08.537Z,100360.59
2023-08-06T05:40:35.528Z,100362.09
2023-08-06T05:43:02.017Z,100360.97
2023-08-06T05:45:28.392Z,100355.00
2023-08-06T05:47:58.875Z,100357.22
2023-08-06T05:50:25.851Z,100361.22
2023-08-06T05:52:52.868Z,100357.75
2023-08-06T05:55:20.779Z,100361.84
2023-08-06T05:57:47.196Z,100356.47
2023-08-06T06:00:13.596Z,100358.28
2023-08-06T06:02:39.992Z,100355.81
2023-08-06T06:05:06.543Z,100356.06
2023-08-06T06:07:32.907Z,100352.31
2023-08-06T06:09:59.496Z,100363.28
2023-08-06T06:12:27.235Z,100354.63
2023-08-06T06:14:53.620Z,100358.06
2023-08-06T06:17:20.104Z,100354.09
2023-08-06T06:19:46.615Z,100361.47
2023-08-06T06:22:12.995Z,100351.94
2023-08-06T06:24:39.440Z,100351.66
2023-08-06T06:27:06.109Z,100357.56
2023-08-06T06:29:32.465Z,100349.94
2023-08-06T06:31:58.903Z,100357.56
2023-08-06T06:34:25.247Z,100363.19
2023-08-06T06:36:51.600Z,100367.13
2023-08-06T06:39:18.735Z,100365.97
2023-08-06T06:41:45.340Z,100358.28
2023-08-06T06:44:11.950Z,100358.72
2023-08-06T06:46:38.356Z,100362.75
2023-08-06T06:49:04.786Z,100357.66
2023-08-06T06:51:32.935Z,100354.47
2023-08-06T06:53:59.590Z,100365.16
2023-08-06T06:56:25.957Z,100362.50
2023-08-06T06:58:52.298Z,100357.56
2023-08-06T07:01:18.918Z,100350.31
2023-08-06T07:03:45.475Z,100344.84
2023-08-06T07:06:13.345Z,100341.28
2023-08-06T07:08:39.870Z,100350.97
2023-08-06T07:11:07.642Z,100348.31
2023-08-06T07:13:35.286Z,100343.47
2023-08-06T07:16:01.852Z,100344.16
2023-08-06T07:18:28.259Z,100343.47
2023-08-06T07:20:55.460Z,100343.19
2023-08-06T07:23:22.807Z,100343.75
2023-08-06T07:25:49.413Z,100339.25
2023-08-06T07:28:16.528Z,100348.75
2023-08-06T07:30:43.786Z,100341.19
2023-08-06T07:33:10.363Z,100349.94
2023-08-06T07:35:37.267Z,100355.56
2023-08-06T07:38:03.866Z,100348.75
2023-08-06T07:40:30.310Z,100346.78
2023-08-06T07:42:56.647Z,100347.16
2023-08-06T07:45:23.043Z,100346.69
2023-08-06T07:47:49.523Z,100344.84
2023-08-06T07:50:16.173Z,100339.72
2023-08-06T07:52:42.556Z,100337.16
2023-08-06T07:55:09.136Z,100347.88
2023-08-06T07:57:35.512Z,100342.31
2023-08-06T08:00:02.380Z,100343.91
2023-08-06T08:02:28.888Z,100341.09
2023-08-06T08:04:55.361Z,100347.88
2023-08-06T08:07:21.850Z,100348.91
2023-08-06T08:09:49.619Z,100339.56
2023-08-06T08:12:16.037Z,100338.00
2023-08-06T08:14:42.730Z,100337.06
2023-08-06T08:17:09.068Z,100328.41
2023-08-06T08:19:35.440Z,100332.44
2023-08-06T08:22:01.951Z,100335.22
2023-08-06T08:24:28.433Z,100335.25
2023-08-06T08:26:54.789Z,100344.34
2023-08-06T08:29:22.301Z,100341.25
2023-08-06T08:31:51.089Z,100333.91
2023-08-06T08:34:18.250Z,100330.06
2023-08-06T08:36:44.974Z,100329.06
2023-08-06T08:39:11.327Z,100331.88
2023-08-06T08:41:38.926Z,100324.19
2023-08-06T08:44:06.356Z,100338.16
2023-08-06T08:46:35.217Z,100330.34
2023-08-06T08:49:03.279Z,100330.63
2023-08-06T08:51:30.157Z,100326.31
2023-08-06T08:53:58.337Z,100324.59
2023-08-06T08:56:25.220Z,100330.03
2023-08-06T08:58:54.217Z,100322.44
2023-08-06T09:01:22.747Z,100324.34
2023-08-06T09:03:49.339Z,100325.38
2023-08-06T09:06:16.602Z,100325.50
2023-08-06T09:08:50.410Z,100321.84
2023-08-06T09:11:17.329Z,100328.16
2023-08-06T09:13:43.747Z,100321.94
2023-08-06T09:16:10.272Z,100322.69
2023-08-06T09:18:40.008Z,100326.81
2023-08-06T09:21:06.415Z,100318.28
2023-08-06T09:23:34.292Z,100319.22
2023-08-06T09:26:01.002Z,100325.06
2023-08-06T09:28:40.480Z,100329.25
2023-08-06T09:31:06.889Z,100322.13
2023-08-06T09:33:33.335Z,100320.84
2023-08-06T09:36:09.743Z,100312.59
2023-08-06T09:38:40.259Z,100323.59
2023-08-06T09:41:06.875Z,100320.31
2023-08-06T09:43:43.782Z,100326.16
2023-08-06T09:46:15.269Z,100323.22
2023-08-06T09:48:42.923Z,100325.16
2023-08-06T09:51:10.340Z,100320.44
2023-08-06T09:53:38.199Z,100328.66
2023-08-06T09:56:04.829Z,100324.56
2023-08-06T09:58:33.165Z,100330.34
2023-08-06T10:01:01.547Z,100325.06
2023-08-06T10:03:29.034Z,100319.53
2023-08-06T10:05:56.772Z,100311.63
2023-08-06T10:08:24.023Z,100314.63
2023-08-06T10:10:51.771Z,100318.00
2023-08-06T10:13:20.556Z,100321.84
2023-08-06T10:15:47.504Z,100314.66
2023-08-06T10:18:15.257Z,100305.53
2023-08-06T10:20:41.646Z,100312.25
2023-08-06T10:23:09.782Z,100307.91
2023-08-06T10:25:37.085Z,100309.81
2023-08-06T10:28:16.094Z,100305.44
2023-08-06T10:30:44.457Z,100307.75
2023-08-06T10:33:10.864Z,100295.91
2023-08-06T10:35:39.036Z,100306.97
2023-08-06T10:38:26.357Z,100296.88
2023-08-06T10:40:55.722Z,100310.16
2023-08-06T10:43:40.766Z,100300.44
2023-08-06T10:46:11.759Z,100301.63
2023-08-06T10:48:38.812Z,100291.63
2023-08-06T10:51:12.224Z,100290.13
2023-08-06T10:53:39.691Z,100292.88
2023-08-06T10:56:20.238Z,100292.59
2023-08-06T10:58:47.550Z,100289.31
2023-08-06T11:01:14.285Z,100281.34
2023-08-06T11:03:41.359Z,100275.81
2023-08-06T11:06:08.636Z,100271.94
2023-08-06T11:08:36.770Z,100276.97
2023-08-06T11:11:14.140Z,100266.03
2023-08-06T11:13:41.804Z,100268.84
2023-08-06T11:16:08.964Z,100263.97
2023-08-06T11:18:35.370Z,100266.09
2023-08-06T11:21:02.120Z,100267.16
2023-08-06T11:23:32.471Z,100256.50
2023-08-06T11:25:59.081Z,100260.63
2023-08-06T11:28:25.778Z,100260.88
2023-08-06T11:30:52.689Z,100254.22
2023-08-06T11:33:23.670Z,100247.63
2023-08-06T11:35:50.467Z,100255.16
2023-08-06T11:38:17.630Z,100250.94
2023-08-06T11:40:48.419Z,100250.81
2023-08-06T11:43:15.317Z,100248.75
2023-08-06T11:45:41.890Z,100244.06
2023-08-06T11:48:11.926Z,100255.44
2023-08-06T11:50:39.886Z,100247.25
2023-08-06T11:53:06.714Z,100253.38
2023-08-06T11:55:33.746Z,100253.44
2023-08-06T11:58:04.314Z,100240.19
2023-08-06T12:00:30.717Z,100251.50
2023-08-06T12:02:57.178Z,100236.50
2023-08-06T12:05:25.214Z,100241.53
2023-08-06T12:07:53.271Z,100239.69
2023-08-06T12:10:23.163Z,100238.75
2023-08-06T12:12:49.639Z,100233.44
2023-08-06T12:15:16.013Z,100235.75
2023-08-06T12:17:42.801Z,100229.34
2023-08-06T12:20:10.180Z,100224.34
2023-08-06T12:22:38.438Z,100224.09
2023-08-06T12:25:09.457Z,100225.16
2023-08-06T12:27:37.073Z,100221.50
2023-08-06T12:30:04.771Z,100215.97
2023-08-06T12:32:31.366Z,100223.25
2023-08-06T12:34:57.737Z,100219.06
2023-08-06T12:37:26.051Z,100216.47
2023-08-06T12:39:52.555Z,100214.75
2023-08-06T12:42:18.902Z,100213.00
2023-08-06T12:44:45.347Z,100215.19
2023-08-06T12:47:11.761Z,100211.44
2023-08-06T12:49:38.151Z,100209.16
2023-08-06T12:52:07.480Z,100211.69
2023-08-06T12:54:40.070Z,100202.94
2023-08-06T12:57:06.703Z,100212.28
2023-08-06T12:59:37.849Z,100213.91
2023-08-06T13:02:05.018Z,100218.91
2023-08-06T13:04:32.085Z,100217.25
2023-08-06T13:06:58.595Z,100214.81
2023-08-06T13:09:25.817Z,100219.91
2023-08-06T13:11:52.545Z,100221.31
2023-08-06T13:14:19.171Z,100218.75
2023-08-06T13:16:46.020Z,100213.81
2023-08-06T13:19:14.282Z,100211.97
2023-08-06T13:21:46.950Z,100220.28
2023-08-06T13:24:13.306Z,100212.59
2023-08-06T13:26:39.833Z,100213.19
2023-08-06T13:29:08.313Z,100213.66
2023-08-06T13:31:34.755Z,100215.81
2023-08-06T13:34:01.259Z,100215.47
2023-08-06T13:36:28.168Z,100218.53
2023-08-06T13:38:54.861Z,100210.22
2023-08-06T13:41:21.496Z,100202.53
2023-08-06T13:43:47.932Z,100205.94
2023-08-06T13:46:19.171Z,100206.25
2023-08-06T13:48:47.320Z,100207.69
2023-08-06T13:51:14.344Z,100210.16
2023-08-06T13:53:41.221Z,100207.44
2023-08-06T13:56:08.255Z,100203.47
2023-08-06T13:58:34.716Z,100200.41
2023-08-06T14:01:01.086Z,100208.31
2023-08-06T14:03:27.888Z,100212.81
2023-08-06T14:05:57.385Z,100214.88
2023-08-06T14:08:24.657Z,100222.09
2023-08-06T14:10:52.002Z,100216.69
2023-08-06T14:13:18.941Z,100218.28
2023-08-06T14:15:47.933Z,100208.25
2023-08-06T14:18:15.273Z,100216.47
2023-08-06T14:20:42.349Z,100217.63
2023-08-06T14:23:09.045Z,100221.19
2023-08-06T14:25:35.630Z,100225.09
2023-08-06T14:28:02.057Z,100226.44
2023-08-06T14:30:28.410Z,100234.22
2023-08-06T14:32:54.794Z,100229.53
2023-08-06T14:35:21.153Z,100240.78
2023-08-06T14:37:47.547Z,100224.91
2023-08-06T14:40:13.980Z,100224.63
2023-08-06T14:42:40.765Z,100219.19
2023-08-06T14:45:07.547Z,100229.72
2023-08-06T14:47:33.923Z,100229.28
2023-08-06T14:50:00.508Z,100222.81
2023-08-06T14:52:27.260Z,100222.06
2023-08-06T14:54:56.441Z,100224.97
2023-08-06T14:57:28.553Z,100227.06
2023-08-06T14:59:55.389Z,100223.19
2023-08-06T15:02:22.019Z,100222.84
2023-08-06T15:04:48.828Z,100223.25
2023-08-06T15:07:15.267Z,100213.44
2023-08-06T15:10:04.083Z,100213.66
2023-08-06T15:12:27.920Z,100217.63
2023-08-06T15:14:57.727Z,100215.97
2023-08-06T15:17:24.335Z,100219.47
2023-08-06T15:19:50.795Z,100227.53
2023-08-06T15:22:17.153Z,100218.25
2023-08-06T15:24:43.524Z,100222.78
2023-08-06T15:27:10.313Z,100224.19
2023-08-06T15:29:36.885Z,100220.22
2023-08-06T15:32:03.814Z,100219.59
2023-08-06T15:34:30.269Z,100209.94
2023-08-06T15:36:56.671Z,100213.94
2023-08-06T15:39:23.067Z,100220.75
2023-08-06T15:41:49.477Z,100212.53
2023-08-06T15:44:15.863Z,100214.56
2023-08-06T15:46:42.269Z,100217.31
2023-08-06T15:49:08.661Z,100212.72
2023-08-06T15:51:35.202Z,100220.91
2023-08-06T15:54:01.592Z,100224.06
2023-08-06T15:56:28.011Z,100223.13
2023-08-06T15:58:55.338Z,100222.13
2023-08-06T16:01:21.846Z,100228.13
2023-08-06T16:03:48.248Z,100228.03
2023-08-06T16:06:14.698Z,100227.78
2023-08-06T16:08:41.121Z,100221.56
2023-08-06T16:11:08.415Z,100222.13
2023-08-06T16:13:34.768Z,100225.78
2023-08-06T16:16:01.138Z,100219.56
2023-08-06T16:18:27.540Z,100227.28
2023-08-06T16:20:54.743Z,100227.06
2023-08-06T16:23:21.101Z,100225.53
2023-08-06T16:25:48.571Z,100226.47
2023-08-06T16:28:14.932Z,100233.09
2023-08-06T16:30:47.949Z,100230.34
2023-08-06T16:33:14.322Z,100227.06
2023-08-06T16:35:41.567Z,100235.03
2023-08-06T16:38:08.122Z,100234.69
2023-08-06T16:40:34.616Z,100238.72
2023-08-06T16:43:00.995Z,100230.28
2023-08-06T16:45:27.365Z,100238.03
2023-08-06T16:47:53.789Z,100233.16
2023-08-06T16:50:20.991Z,100234.03
2023-08-06T16:52:47.393Z,100236.84
2023-08-06T16:55:15.589Z,100230.56
2023-08-06T16:57:41.938Z,100237.94
2023-08-06T17:00:08.615Z,100242.56
2023-08-06T17:02:35.159Z,100247.25
2023-08-06T17:05:01.558Z,100229.63
2023-08-06T17:07:27.974Z,100234.66
2023-08-06T17:09:54.349Z,100226.03
2023-08-06T17:12:22.014Z,100229.13
2023-08-06T17:14:48.415Z,100217.50
2023-08-06T17:17:15.123Z,100231.84
2023-08-06T17:19:44.364Z,100226.25
2023-08-06T17:22:11.172Z,100218.47
2023-08-06T17:24:38.382Z,100227.22
2023-08-06T17:27:04.851Z,100218.97
2023-08-06T17:29:31.227Z,100228.16
2023-08-06T17:31:57.654Z,100224.97
2023-08-06T17:34:24.158Z,100226.88
2023-08-06T17:36:50.517Z,100232.41
2023-08-06T17:39:16.846Z,100227.41
2023-08-06T17:41:44.634Z,100235.53
2023-08-06T17:44:13.159Z,100239.56
2023-08-06T17:46:39.554Z,100231.47
2023-08-06T17:49:06.049Z,100233.00
2023-08-06T17:51:32.500Z,100229.53
2023-08-06T17:53:58.841Z,100228.97
2023-08-06T17:56:25.402Z,100228.91
2023-08-06T17:58:51.859Z,100227.69
2023-08-06T18:01:18.242Z,100234.75
2023-08-06T18:03:46.896Z,100236.25
2023-08-06T18:06:13.634Z,100234.78
2023-08-06T18:08:40.014Z,100228.84
2023-08-06T18:11:06.355Z,100232.00
2023-08-06T18:13:32.681Z,100234.25
2023-08-06T18:15:59.051Z,100222.81
2023-08-06T18:18:26.309Z,100225.16
2023-08-06T18:20:52.672Z,100226.53
2023-08-06T18:23:19.219Z,100226.69
2023-08-06T18:25:45.676Z,100231.78
2023-08-06T18:28:12.099Z,100230.75
2023-08-06T18:30:40.639Z,100230.84
2023-08-06T18:33:07.675Z,100227.94
2023-08-06T18:35:34.152Z,100227.16
2023-08-06T18:38:00.978Z,100225.69
2023-08-06T18:40:29.512Z,100225.41
2023-08-06T18:42:55.892Z,100228.03
2023-08-06T18:45:22.240Z,100225.69
2023-08-06T18:47:48.599Z,100227.63
2023-08-06T18:50:15.088Z,100229.09
2023-08-06T18:52:41.476Z,100231.75
2023-08-06T18:55:08.178Z,100223.53
2023-08-06T18:57:34.594Z,100232.06
2023-08-06T19:00:01.085Z,100230.94
2023-08-06T19:02:28.390Z,100220.78
2023-08-06T19:04:55.806Z,100222.50
2023-08-06T19:07:22.321Z,100224.88
2023-08-06T19:09:49.173Z,100220.63
2023-08-06T19:12:16.382Z,100223.72
2023-08-06T19:14:43.071Z,100217.13
2023-08-06T19:17:09.761Z,100218.72
2023-08-06T19:19:36.212Z,100217.41
2023-08-06T19:22:02.559Z,100218.56
2023-08-06T19:24:28.992Z,100223.81
2023-08-06T19:26:55.411Z,100221.47
2023-08-06T19:29:21.758Z,100218.47
2023-08-06T19:32:05.266Z,100221.69
2023-08-06T19:34:33.093Z,100222.06
2023-08-06T19:37:00.200Z,100217.06
2023-08-06T19:39:27.026Z,100221.91
2023-08-06T19:41:54.232Z,100215.03
2023-08-06T19:44:21.165Z,100213.31
2023-08-06T19:46:47.937Z,100210.97
2023-08-06T19:49:14.843Z,100213.06
2023-08-06T19:51:41.454Z,100210.78
2023-08-06T19:54:08.380Z,100216.03
2023-08-06T19:56:35.410Z,100210.75
2023-08-06T19:59:02.444Z,100216.25
2023-08-06T20:01:29.262Z,100205.88
2023-08-06T20:03:55.764Z,100209.78
2023-08-06T20:06:28.196Z,100219.34
2023-08-06T20:08:58.753Z,100214.41
2023-08-06T20:11:25.820Z,100210.00
2023-08-06T20:13:52.235Z,100207.94
2023-08-06T20:16:19.057Z,100197.53
2023-08-06T20:18:45.889Z,100204.41
2023-08-06T20:21:12.322Z,100203.94
2023-08-06T20:23:38.820Z,100200.47
2023-08-06T20:26:05.207Z,100195.94
2023-08-06T20:28:32.208Z,100203.88
2023-08-06T20:30:58.948Z,100214.09
2023-08-06T20:33:25.338Z,100205.91
2023-08-06T20:35:51.956Z,100196.84
2023-08-06T20:38:19.950Z,100198.41
2023-08-06T20:40:46.811Z,100201.25
2023-08-06T20:43:13.369Z,100191.94
2023-08-06T20:45:41.157Z,100193.28
2023-08-06T20:48:08.322Z,100193.91
2023-08-06T20:50:34.895Z,100191.69
2023-08-06T20:53:01.248Z,100197.59
2023-08-06T20:55:27.917Z,100192.47
2023-08-06T20:57:54.447Z,100197.50
2023-08-06T21:00:21.125Z,100198.81
2023-08-06T21:02:47.728Z,100200.41
2023-08-06T21:05:14.449Z,100203.00
2023-08-06T21:07:41.023Z,100202.97
2023-08-06T21:10:07.744Z,100207.63
2023-08-06T21:12:34.255Z,100210.28
2023-08-06T21:15:00.694Z,100205.47
2023-08-06T21:17:27.196Z,100197.78
2023-08-06T21:19:53.660Z,100216.97
2023-08-06T21:22:20.034Z,100211.28
2023-08-06T21:24:46.425Z,100219.00
2023-08-06T21:27:12.920Z,100212.94
2023-08-06T21:29:40.677Z,100218.56
2023-08-06T21:32:07.960Z,100213.53
2023-08-06T21:34:34.350Z,100217.16
2023-08-06T21:37:00.695Z,100225.34
2023-08-06T21:39:27.839Z,100214.56
2023-08-06T21:41:54.422Z,100217.19
2023-08-06T21:44:20.949Z,100214.59
2023-08-06T21:46:47.306Z,100213.75
2023-08-06T21:49:14.175Z,100202.16
2023-08-06T21:51:41.113Z,100211.31
2023-08-06T21:54:07.534Z,100205.44
2023-08-06T21:56:34.148Z,100203.59
2023-08-06T21:59:00.880Z,100207.19
2023-08-06T22:01:30.954Z,100201.06
2023-08-06T22:03:58.252Z,100208.34
2023-08-06T22:06:24.793Z,100210.50
2023-08-06T22:08:54.229Z,100219.63
2023-08-06T22:11:20.572Z,100215.78
2023-08-06T22:13:47.098Z,100210.38
2023-08-06T22:16:13.475Z,100211.81
2023-08-06T22:18:39.871Z,100213.63
2023-08-06T22:21:06.440Z,100217.00
2023-08-06T22:23:33.008Z,100205.03
2023-08-06T22:25:59.438Z,100202.22
2023-08-06T22:28:26.130Z,100209.53
2023-08-06T22:30:53.104Z,100208.78
2023-08-06T22:33:20.062Z,100214.84
2023-08-06T22:35:46.983Z,100203.28
2023-08-06T22:38:13.555Z,100207.91
2023-08-06T22:40:39.947Z,100206.25
2023-08-06T22:43:06.592Z,100203.84
2023-08-06T22:45:32.995Z,100204.03
2023-08-06T22:47:59.416Z,100199.00
2023-08-06T22:50:26.071Z,100206.53
2023-08-06T22:52:52.618Z,100205.97
2023-08-06T22:55:32.205Z,100199.72
2023-08-06T22:58:05.292Z,100190.63
2023-08-06T23:00:31.881Z,100199.25
2023-08-06T23:03:09.135Z,100191.72
2023-08-06T23:05:37.016Z,100198.47
2023-08-06T23:08:03.471Z,100187.03
2023-08-06T23:10:29.872Z,100176.06
2023-08-06T23:12:56.460Z,100188.81
2023-08-06T23:15:22.814Z,100178.13
2023-08-06T23:17:49.252Z,100181.00
2023-08-06T23:20:15.708Z,100188.00
2023-08-06T23:22:42.567Z,100184.22
2023-08-06T23:25:09.160Z,100177.69
2023-08-06T23:27:35.523Z,100179.34
2023-08-06T23:30:02.186Z,100181.84
2023-08-06T23:32:29.741Z,100178.41
2023-08-06T23:34:56.180Z,100184.59
2023-08-06T23:37:22.557Z,100186.97
2023-08-06T23:39:53.915Z,100185.28
2023-08-06T23:42:20.846Z,100186.00
2023-08-06T23:44:47.188Z,100187.38
2023-08-06T23:47:13.608Z,100195.56
2023-08-06T23:49:40.033Z,100178.56
2023-08-06T23:52:06.758Z,100177.78
2023-08-06T23:54:33.108Z,100168.09
2023-08-06T23:56:59.475Z,100180.13
2023-08-06T23:59:25.832Z,100174.41
